createdAt,value
2023-02-11T00:00:57.731Z,0.15
2023-02-11T00:03:24.793Z,0.10
2023-02-11T00:06:03.231Z,0.10
2023-02-11T00:08:30.185Z,0.05
2023-02-11T00:10:58.332Z,0.10
2023-02-11T00:13:26.115Z,0.10
2023-02-11T00:15:54.573Z,0.03
2023-02-11T00:18:21.742Z,0.10
2023-02-11T00:20:49.067Z,0.20
2023-02-11T00:23:16.150Z,0.10
2023-02-11T00:25:44.657Z,0.10
2023-02-11T00:28:13.064Z,0.10
2023-02-11T00:30:40.219Z,0.10
2023-02-11T00:33:07.353Z,0.10
2023-02-11T00:35:36.522Z,0.10
2023-02-11T00:38:03.465Z,0.00
2023-02-11T00:40:30.431Z,0.03
2023-02-11T00:42:57.394Z,0.00
2023-02-11T00:45:24.315Z,0.03
2023-02-11T00:47:51.216Z,0.30
2023-02-11T00:50:18.319Z,0.00
2023-02-11T00:52:45.255Z,0.10
2023-02-11T00:55:12.168Z,0.10
2023-02-11T00:57:39.114Z,0.17
2023-02-11T01:00:07.607Z,0.10
2023-02-11T01:02:34.617Z,0.13
2023-02-11T01:05:01.823Z,0.05
2023-02-11T01:07:29.508Z,0.10
2023-02-11T01:09:56.913Z,0.20
2023-02-11T01:12:24.118Z,0.20
2023-02-11T01:14:51.274Z,0.10
2023-02-11T01:17:18.228Z,1.75
2023-02-11T01:19:45.298Z,0.45
2023-02-11T01:22:12.221Z,0.10
2023-02-11T01:24:39.192Z,0.10
2023-02-11T01:27:06.141Z,0.20
2023-02-11T01:29:33.128Z,0.10
2023-02-11T01:32:01.135Z,0.30
2023-02-11T01:34:28.642Z,0.20
2023-02-11T01:37:04.665Z,0.32
2023-02-11T01:39:34.264Z,0.30
2023-02-11T01:42:02.088Z,0.20
2023-02-11T01:44:38.268Z,0.20
2023-02-11T01:47:06.461Z,0.10
2023-02-11T01:49:37.584Z,0.10
2023-02-11T01:52:09.734Z,0.10
2023-02-11T01:55:05.970Z,0.10
2023-02-11T01:57:35.504Z,0.22
2023-02-11T02:00:24.604Z,0.20
2023-02-11T02:03:10.434Z,0.10
2023-02-11T02:05:54.199Z,0.08
2023-02-11T02:08:37.416Z,0.73
2023-02-11T02:11:04.823Z,0.50
2023-02-11T02:13:34.277Z,0.00
2023-02-11T02:16:04.212Z,0.00
2023-02-11T02:18:49.498Z,0.00
2023-02-11T02:21:42.118Z,0.00
2023-02-11T02:24:51.288Z,0.50
2023-02-11T02:27:47.082Z,0.90
2023-02-11T02:30:47.000Z,1.02
2023-02-11T02:33:22.308Z,0.22
2023-02-11T02:35:52.481Z,0.38
2023-02-11T02:38:31.531Z,0.00
2023-02-11T02:41:11.118Z,0.10
2023-02-11T02:43:41.725Z,0.10
2023-02-11T02:46:29.816Z,0.10
2023-02-11T02:48:57.624Z,0.00
2023-02-11T02:51:45.780Z,0.10
2023-02-11T02:54:31.564Z,0.30
2023-02-11T02:57:26.083Z,0.10
2023-02-11T03:00:12.128Z,0.00
2023-02-11T03:02:48.079Z,0.10
2023-02-11T03:05:27.844Z,0.10
2023-02-11T03:08:08.479Z,0.10
2023-02-11T03:10:40.693Z,0.05
2023-02-11T03:13:08.298Z,0.20
2023-02-11T03:15:41.401Z,0.15
2023-02-11T03:18:12.097Z,0.05
2023-02-11T03:20:41.802Z,0.00
2023-02-11T03:23:13.737Z,0.10
2023-02-11T03:25:55.710Z,0.00
2023-02-11T03:28:30.210Z,0.10
2023-02-11T03:31:14.877Z,0.82
2023-02-11T03:34:07.037Z,0.10
2023-02-11T03:36:46.132Z,0.10
2023-02-11T03:39:21.116Z,0.10
2023-02-11T03:41:49.982Z,0.47
2023-02-11T03:44:17.801Z,0.10
2023-02-11T03:46:50.414Z,0.20
2023-02-11T03:49:20.955Z,1.10
2023-02-11T03:51:50.951Z,0.45
2023-02-11T03:54:24.353Z,0.20
2023-02-11T03:56:57.120Z,0.40
2023-02-11T03:59:24.114Z,0.10
2023-02-11T04:01:52.044Z,0.60
2023-02-11T04:04:19.428Z,1.05
2023-02-11T04:06:46.383Z,0.10
2023-02-11T04:09:13.340Z,0.20
2023-02-11T04:11:40.250Z,0.10
2023-02-11T04:14:07.284Z,0.05
2023-02-11T04:16:34.238Z,0.10
2023-02-11T04:19:01.878Z,0.10
2023-02-11T04:21:29.296Z,0.13
2023-02-11T04:23:56.204Z,0.22
2023-02-11T04:26:23.197Z,0.10
2023-02-11T04:28:50.126Z,1.20
2023-02-11T04:31:17.158Z,0.52
2023-02-11T04:33:44.154Z,0.25
2023-02-11T04:36:11.298Z,0.40
2023-02-11T04:38:38.217Z,0.20
2023-02-11T04:41:05.354Z,0.20
2023-02-11T04:43:32.295Z,1.17
2023-02-11T04:45:59.454Z,1.67
2023-02-11T04:48:27.096Z,1.23
2023-02-11T04:50:54.085Z,2.17
2023-02-11T04:53:21.345Z,0.88
2023-02-11T04:55:51.655Z,4.15
2023-02-11T04:58:19.981Z,2.17
2023-02-11T05:00:47.677Z,5.38
2023-02-11T05:03:15.998Z,1.40
2023-02-11T05:05:43.518Z,0.50
2023-02-11T05:08:11.567Z,0.55
2023-02-11T05:10:38.896Z,3.05
2023-02-11T05:13:05.855Z,3.42
2023-02-11T05:15:32.958Z,2.30
2023-02-11T05:17:59.892Z,1.20
2023-02-11T05:20:26.845Z,2.25
2023-02-11T05:22:53.817Z,0.95
2023-02-11T05:25:20.834Z,1.30
2023-02-11T05:27:47.744Z,1.42
2023-02-11T05:30:14.933Z,1.02
2023-02-11T05:32:42.007Z,0.52
2023-02-11T05:35:09.551Z,1.15
2023-02-11T05:37:36.616Z,1.02
2023-02-11T05:40:04.377Z,2.08
2023-02-11T05:42:31.379Z,1.15
2023-02-11T05:44:58.431Z,0.85
2023-02-11T05:47:25.370Z,0.40
2023-02-11T05:49:53.730Z,1.05
2023-02-11T05:52:21.979Z,0.45
2023-02-11T05:54:48.922Z,0.40
2023-02-11T05:57:16.764Z,0.20
2023-02-11T05:59:43.752Z,0.70
2023-02-11T06:02:11.040Z,1.13
2023-02-11T06:04:38.334Z,2.28
2023-02-11T06:07:05.263Z,0.38
2023-02-11T06:09:32.236Z,2.35
2023-02-11T06:11:59.212Z,1.45
2023-02-11T06:14:26.124Z,0.93
2023-02-11T06:16:53.043Z,0.30
2023-02-11T06:19:20.007Z,0.95
2023-02-11T06:21:46.932Z,0.60
2023-02-11T06:24:13.905Z,0.98
2023-02-11T06:26:40.850Z,0.40
2023-02-11T06:29:07.992Z,0.20
2023-02-11T06:31:36.723Z,0.25
2023-02-11T06:34:03.881Z,0.15
2023-02-11T06:36:30.984Z,0.82
2023-02-11T06:38:57.916Z,0.55
2023-02-11T06:41:24.870Z,0.60
2023-02-11T06:43:53.468Z,0.38
2023-02-11T06:46:20.605Z,2.83
2023-02-11T06:48:47.877Z,0.85
2023-02-11T06:51:15.877Z,0.93
2023-02-11T06:53:45.125Z,0.30
2023-02-11T06:56:16.699Z,0.40
2023-02-11T06:58:43.636Z,1.38
2023-02-11T07:01:13.827Z,0.45
2023-02-11T07:03:43.261Z,1.65
2023-02-11T07:06:14.087Z,1.25
2023-02-11T07:08:42.566Z,0.43
2023-02-11T07:11:18.273Z,1.00
2023-02-11T07:13:45.413Z,0.68
2023-02-11T07:16:15.686Z,0.98
2023-02-11T07:18:43.379Z,1.05
2023-02-11T07:21:12.180Z,1.42
2023-02-11T07:23:40.869Z,1.95
2023-02-11T07:26:10.255Z,0.43
2023-02-11T07:28:38.869Z,1.45
2023-02-11T07:31:12.074Z,0.47
2023-02-11T07:33:39.331Z,1.17
2023-02-11T07:36:08.315Z,1.23
2023-02-11T07:38:36.062Z,4.05
2023-02-11T07:41:05.347Z,1.92
2023-02-11T07:43:33.298Z,0.55
2023-02-11T07:46:03.522Z,0.75
2023-02-11T07:48:30.468Z,1.80
2023-02-11T07:51:25.012Z,0.88
2023-02-11T07:53:52.623Z,1.45
2023-02-11T07:56:21.176Z,0.80
2023-02-11T07:58:48.514Z,0.45
2023-02-11T08:01:19.043Z,1.80
2023-02-11T08:03:46.289Z,1.25
2023-02-11T08:06:16.572Z,3.60
2023-02-11T08:08:44.306Z,0.28
2023-02-11T08:11:13.643Z,0.45
2023-02-11T08:13:41.098Z,0.98
2023-02-11T08:16:09.104Z,0.25
2023-02-11T08:18:36.890Z,0.43
2023-02-11T08:21:08.757Z,0.35
2023-02-11T08:23:38.240Z,0.70
2023-02-11T08:26:07.089Z,0.85
2023-02-11T08:28:37.548Z,1.30
2023-02-11T08:31:19.946Z,0.30
2023-02-11T08:33:47.470Z,0.70
2023-02-11T08:36:25.820Z,0.43
2023-02-11T08:39:15.916Z,0.47
2023-02-11T08:41:45.553Z,1.00
2023-02-11T08:44:12.863Z,0.30
2023-02-11T08:46:40.005Z,0.70
2023-02-11T08:49:07.125Z,0.95
2023-02-11T08:51:34.346Z,1.45
2023-02-11T08:54:01.395Z,0.47
2023-02-11T08:56:29.154Z,0.20
2023-02-11T08:58:56.204Z,0.70
2023-02-11T09:01:28.619Z,1.23
2023-02-11T09:03:56.284Z,0.68
2023-02-11T09:06:24.851Z,0.52
2023-02-11T09:08:54.396Z,0.73
2023-02-11T09:11:26.011Z,0.22
2023-02-11T09:13:54.491Z,0.85
2023-02-11T09:16:39.625Z,0.60
2023-02-11T09:19:06.815Z,1.00
2023-02-11T09:21:34.041Z,0.82
2023-02-11T09:24:01.222Z,0.70
2023-02-11T09:26:34.124Z,1.08
2023-02-11T09:29:01.755Z,1.75
2023-02-11T09:31:31.477Z,0.88
2023-02-11T09:34:01.270Z,1.00
2023-02-11T09:36:31.795Z,1.90
2023-02-11T09:39:00.744Z,2.35
2023-02-11T09:42:05.123Z,1.08
2023-02-11T09:44:34.367Z,1.20
2023-02-11T09:47:05.168Z,0.85
2023-02-11T09:49:45.374Z,0.50
2023-02-11T09:52:34.330Z,0.47
2023-02-11T09:55:03.577Z,0.52
2023-02-11T09:57:37.071Z,0.50
2023-02-11T10:00:38.255Z,0.40
2023-02-11T10:03:37.949Z,0.22
2023-02-11T10:06:25.685Z,0.50
2023-02-11T10:09:01.838Z,0.95
2023-02-11T10:11:40.244Z,0.65
2023-02-11T10:14:16.149Z,0.43
2023-02-11T10:16:48.581Z,0.57
2023-02-11T10:19:30.551Z,0.90
2023-02-11T10:22:20.480Z,0.13
2023-02-11T10:24:59.919Z,1.88
2023-02-11T10:27:35.841Z,0.50
2023-02-11T10:30:31.758Z,0.20
2023-02-11T10:33:12.661Z,1.17
2023-02-11T10:35:39.806Z,0.10
2023-02-11T10:38:07.796Z,0.25
2023-02-11T10:40:34.720Z,0.25
2023-02-11T10:43:06.112Z,0.77
2023-02-11T10:45:34.673Z,0.10
2023-02-11T10:48:26.551Z,0.52
2023-02-11T10:51:14.719Z,0.20
2023-02-11T10:53:42.384Z,0.20
2023-02-11T10:56:14.490Z,0.45
2023-02-11T10:59:14.539Z,0.70
2023-02-11T11:01:43.809Z,1.92
2023-02-11T11:04:44.140Z,0.93
2023-02-11T11:07:11.191Z,0.45
2023-02-11T11:09:51.944Z,1.33
2023-02-11T11:12:35.154Z,0.10
2023-02-11T11:15:24.287Z,0.30
2023-02-11T11:18:20.830Z,0.40
2023-02-11T11:21:05.930Z,0.10
2023-02-11T11:23:34.684Z,0.32
2023-02-11T11:26:06.221Z,0.38
2023-02-11T11:28:53.900Z,2.65
2023-02-11T11:31:34.332Z,2.05
2023-02-11T11:34:19.016Z,1.80
2023-02-11T11:36:46.089Z,0.98
2023-02-11T11:39:33.864Z,3.10
2023-02-11T11:42:03.367Z,0.65
2023-02-11T11:44:36.082Z,0.52
2023-02-11T11:47:11.831Z,1.23
2023-02-11T11:50:16.357Z,0.60
2023-02-11T11:53:11.176Z,0.10
2023-02-11T11:55:45.109Z,0.82
2023-02-11T11:58:17.916Z,0.10
2023-02-11T12:01:02.978Z,1.17
2023-02-11T12:04:06.802Z,0.20
2023-02-11T12:06:36.527Z,1.00
2023-02-11T12:09:32.957Z,0.65
2023-02-11T12:12:11.846Z,0.40
2023-02-11T12:14:54.209Z,0.17
2023-02-11T12:17:51.646Z,0.00
2023-02-11T12:20:33.767Z,0.10
2023-02-11T12:23:28.954Z,0.45
2023-02-11T12:26:23.174Z,0.28
2023-02-11T12:29:34.794Z,0.00
2023-02-11T12:32:26.201Z,0.30
2023-02-11T12:34:53.123Z,0.73
2023-02-11T12:37:28.591Z,0.10
2023-02-11T12:40:26.895Z,0.10
2023-02-11T12:43:16.693Z,0.00
2023-02-11T12:46:28.764Z,0.20
2023-02-11T12:49:07.405Z,0.38
2023-02-11T12:52:03.994Z,0.40
2023-02-11T12:54:40.311Z,0.40
2023-02-11T12:57:26.976Z,0.35
2023-02-11T13:00:13.823Z,0.82
2023-02-11T13:02:54.650Z,0.10
2023-02-11T13:05:46.143Z,0.25
2023-02-11T13:08:33.129Z,0.30
2023-02-11T13:11:16.172Z,0.08
2023-02-11T13:13:46.295Z,0.10
2023-02-11T13:16:40.678Z,0.00
2023-02-11T13:19:13.325Z,0.00
2023-02-11T13:22:05.295Z,0.03
2023-02-11T13:24:51.298Z,0.00
2023-02-11T13:27:28.839Z,0.08
2023-02-11T13:29:56.420Z,0.00
2023-02-11T13:32:23.381Z,0.52
2023-02-11T13:34:55.129Z,0.00
2023-02-11T13:37:39.802Z,0.17
2023-02-11T13:40:22.078Z,0.35
2023-02-11T13:42:58.222Z,0.10
2023-02-11T13:45:38.940Z,0.10
2023-02-11T13:48:19.423Z,0.00
2023-02-11T13:50:50.402Z,0.00
2023-02-11T13:53:18.695Z,0.17
2023-02-11T13:55:48.067Z,0.00
2023-02-11T13:58:14.938Z,0.00
2023-02-11T14:00:51.358Z,0.00
2023-02-11T14:03:41.781Z,0.00
2023-02-11T14:06:27.597Z,0.00
2023-02-11T14:09:09.679Z,0.00
2023-02-11T14:11:46.304Z,0.45
2023-02-11T14:14:33.656Z,0.10
2023-02-11T14:17:04.721Z,0.00
2023-02-11T14:19:39.910Z,0.00
2023-02-11T14:22:13.694Z,0.10
2023-02-11T14:24:48.790Z,0.20
2023-02-11T14:27:23.276Z,0.00
2023-02-11T14:30:28.959Z,0.10
2023-02-11T14:33:21.211Z,0.00
2023-02-11T14:36:23.088Z,0.05
2023-02-11T14:39:13.188Z,0.13
2023-02-11T14:41:43.063Z,2.40
2023-02-11T14:44:20.440Z,0.10
2023-02-11T14:46:50.348Z,0.10
2023-02-11T14:49:28.757Z,0.20
2023-02-11T14:52:21.537Z,0.40
2023-02-11T14:54:51.269Z,0.32
2023-02-11T14:57:20.629Z,0.15
2023-02-11T14:59:59.245Z,0.25
2023-02-11T15:02:33.061Z,0.35
2023-02-11T15:05:20.343Z,2.60
2023-02-11T15:07:50.309Z,0.95
2023-02-11T15:10:22.255Z,0.25
2023-02-11T15:12:49.976Z,1.25
2023-02-11T15:15:17.300Z,0.20
2023-02-11T15:17:45.322Z,0.52
2023-02-11T15:20:25.781Z,0.43
2023-02-11T15:22:57.547Z,0.95
2023-02-11T15:25:24.757Z,0.40
2023-02-11T15:27:56.600Z,0.35
2023-02-11T15:30:25.114Z,0.32
2023-02-11T15:33:00.953Z,0.88
2023-02-11T15:35:35.213Z,1.38
2023-02-11T15:38:02.486Z,2.42
2023-02-11T15:40:34.659Z,1.30
2023-02-11T15:43:07.768Z,1.50
2023-02-11T15:45:59.042Z,0.77
2023-02-11T15:48:34.296Z,0.75
2023-02-11T15:51:23.157Z,1.80
2023-02-11T15:53:57.043Z,1.23
2023-02-11T15:56:33.320Z,1.55
2023-02-11T15:59:09.532Z,1.40
2023-02-11T16:01:38.274Z,0.68
2023-02-11T16:04:06.217Z,0.82
2023-02-11T16:06:40.705Z,1.92
2023-02-11T16:09:11.177Z,0.30
2023-02-11T16:11:55.968Z,0.30
2023-02-11T16:14:34.789Z,0.98
2023-02-11T16:17:12.309Z,0.20
2023-02-11T16:19:50.922Z,1.08
2023-02-11T16:22:28.948Z,0.70
2023-02-11T16:24:59.187Z,0.17
2023-02-11T16:27:30.583Z,0.30
2023-02-11T16:29:58.864Z,0.52
2023-02-11T16:32:29.913Z,0.50
2023-02-11T16:34:59.018Z,0.47
2023-02-11T16:37:26.405Z,0.40
2023-02-11T16:39:58.326Z,0.73
2023-02-11T16:42:25.579Z,0.30
2023-02-11T16:44:52.524Z,3.25
2023-02-11T16:47:27.761Z,0.75
2023-02-11T16:49:56.266Z,1.13
2023-02-11T16:52:23.605Z,0.40
2023-02-11T16:54:50.668Z,0.43
2023-02-11T16:57:20.723Z,1.42
2023-02-11T16:59:47.958Z,1.17
2023-02-11T17:02:25.985Z,0.70
2023-02-11T17:04:54.073Z,1.38
2023-02-11T17:07:21.432Z,1.98
2023-02-11T17:09:48.682Z,0.85
2023-02-11T17:12:15.636Z,2.20
2023-02-11T17:14:42.573Z,0.55
2023-02-11T17:17:10.926Z,0.47
2023-02-11T17:19:38.117Z,0.60
2023-02-11T17:22:05.410Z,1.20
2023-02-11T17:24:32.728Z,0.35
2023-02-11T17:26:59.956Z,0.60
2023-02-11T17:29:27.214Z,0.50
2023-02-11T17:31:54.546Z,0.68
2023-02-11T17:34:22.676Z,0.68
2023-02-11T17:36:49.992Z,1.23
2023-02-11T17:39:17.022Z,0.73
2023-02-11T17:41:44.004Z,1.13
2023-02-11T17:44:12.556Z,0.63
2023-02-11T17:46:39.777Z,0.47
2023-02-11T17:49:06.744Z,0.60
2023-02-11T17:51:38.298Z,1.20
2023-02-11T17:54:17.296Z,0.90
2023-02-11T17:56:44.851Z,0.60
2023-02-11T17:59:13.361Z,1.17
2023-02-11T18:01:42.216Z,1.23
2023-02-11T18:04:16.911Z,2.88
2023-02-11T18:06:44.612Z,0.63
2023-02-11T18:09:12.345Z,1.65
2023-02-11T18:11:40.297Z,2.17
2023-02-11T18:14:08.544Z,0.50
2023-02-11T18:16:36.707Z,2.42
2023-02-11T18:19:03.905Z,1.25
2023-02-11T18:21:31.013Z,1.75
2023-02-11T18:23:58.044Z,3.17
2023-02-11T18:26:26.387Z,1.05
2023-02-11T18:28:53.585Z,2.22
2023-02-11T18:31:22.348Z,2.78
2023-02-11T18:33:49.340Z,1.85
2023-02-11T18:36:17.002Z,0.63
2023-02-11T18:38:46.810Z,3.83
2023-02-11T18:41:14.753Z,2.67
2023-02-11T18:43:43.058Z,2.38
2023-02-11T18:46:14.049Z,2.42
2023-02-11T18:48:41.488Z,2.92
2023-02-11T18:51:10.424Z,3.28
2023-02-11T18:53:37.392Z,3.15
2023-02-11T18:56:19.280Z,3.40
2023-02-11T18:58:46.586Z,4.10
2023-02-11T19:01:17.256Z,4.07
2023-02-11T19:03:45.288Z,3.35
2023-02-11T19:06:18.389Z,2.75
2023-02-11T19:08:45.790Z,5.63
2023-02-11T19:11:13.037Z,4.50
2023-02-11T19:13:39.994Z,5.55
2023-02-11T19:16:11.192Z,5.85
2023-02-11T19:18:38.893Z,3.15
2023-02-11T19:21:10.429Z,2.55
2023-02-11T19:23:37.991Z,1.95
2023-02-11T19:26:06.544Z,3.97
2023-02-11T19:28:35.366Z,1.00
2023-02-11T19:31:07.356Z,1.58
2023-02-11T19:33:34.618Z,2.85
2023-02-11T19:36:06.919Z,0.80
2023-02-11T19:38:34.804Z,2.17
2023-02-11T19:41:02.127Z,3.05
2023-02-11T19:43:29.375Z,3.17
2023-02-11T19:45:57.669Z,2.22
2023-02-11T19:48:25.484Z,2.63
2023-02-11T19:50:52.798Z,3.47
2023-02-11T19:53:19.918Z,1.17
2023-02-11T19:55:47.337Z,4.10
2023-02-11T19:58:14.883Z,3.92
2023-02-11T20:00:42.249Z,4.47
2023-02-11T20:03:09.484Z,5.32
2023-02-11T20:05:43.445Z,2.00
2023-02-11T20:08:10.405Z,6.18
2023-02-11T20:10:37.330Z,2.17
2023-02-11T20:13:04.379Z,2.30
2023-02-11T20:15:31.931Z,1.98
2023-02-11T20:17:58.902Z,1.65
2023-02-11T20:20:25.875Z,1.92
2023-02-11T20:22:52.844Z,2.38
2023-02-11T20:25:19.936Z,2.55
2023-02-11T20:27:46.925Z,3.28
2023-02-11T20:30:14.489Z,2.80
2023-02-11T20:32:41.629Z,3.30
2023-02-11T20:35:09.668Z,4.47
2023-02-11T20:37:36.734Z,7.05
2023-02-11T20:40:03.979Z,2.45
2023-02-11T20:42:30.957Z,2.83
2023-02-11T20:44:57.903Z,2.97
2023-02-11T20:47:24.982Z,4.60
2023-02-11T20:49:55.362Z,4.78
2023-02-11T20:52:22.329Z,3.10
2023-02-11T20:54:49.332Z,5.70
2023-02-11T20:57:16.266Z,3.90
2023-02-11T20:59:43.474Z,4.72
2023-02-11T21:02:12.590Z,4.28
2023-02-11T21:04:40.398Z,6.10
2023-02-11T21:07:07.373Z,2.92
2023-02-11T21:09:34.500Z,4.60
2023-02-11T21:12:03.940Z,5.88
2023-02-11T21:14:31.030Z,4.05
2023-02-11T21:16:58.286Z,3.30
2023-02-11T21:19:25.533Z,4.00
2023-02-11T21:21:52.596Z,4.07
2023-02-11T21:24:19.621Z,2.25
2023-02-11T21:26:46.730Z,2.28
2023-02-11T21:29:13.730Z,2.00
2023-02-11T21:31:40.905Z,3.70
2023-02-11T21:34:08.634Z,4.60
2023-02-11T21:36:35.582Z,6.53
2023-02-11T21:39:04.154Z,4.97
2023-02-11T21:41:31.742Z,2.67
2023-02-11T21:43:58.942Z,5.07
2023-02-11T21:46:26.313Z,3.70
2023-02-11T21:48:53.576Z,4.72
2023-02-11T21:51:25.749Z,5.20
2023-02-11T21:54:02.956Z,4.43
2023-02-11T21:56:31.712Z,3.35
2023-02-11T21:58:59.870Z,4.10
2023-02-11T22:01:30.124Z,3.85
2023-02-11T22:03:57.399Z,6.20
2023-02-11T22:06:30.673Z,3.10
2023-02-11T22:08:58.771Z,2.15
2023-02-11T22:11:25.776Z,2.22
2023-02-11T22:13:56.694Z,4.88
2023-02-11T22:16:24.549Z,4.22
2023-02-11T22:18:52.180Z,2.47
2023-02-11T22:21:22.778Z,3.63
2023-02-11T22:23:51.106Z,3.20
2023-02-11T22:26:20.470Z,4.97
2023-02-11T22:28:47.626Z,3.63
2023-02-11T22:31:17.772Z,2.70
2023-02-11T22:33:45.582Z,6.15
2023-02-11T22:36:19.660Z,5.55
2023-02-11T22:38:46.714Z,3.15
2023-02-11T22:41:14.796Z,3.28
2023-02-11T22:43:43.240Z,1.80
2023-02-11T22:46:13.705Z,3.35
2023-02-11T22:48:41.002Z,2.28
2023-02-11T22:51:10.402Z,2.55
2023-02-11T22:53:37.545Z,4.25
2023-02-11T22:56:11.699Z,5.55
2023-02-11T22:58:39.767Z,2.35
2023-02-11T23:01:07.155Z,2.95
2023-02-11T23:03:34.955Z,2.72
2023-02-11T23:06:02.794Z,3.75
2023-02-11T23:08:31.357Z,1.85
2023-02-11T23:11:11.834Z,2.30
2023-02-11T23:13:40.874Z,1.95
2023-02-11T23:16:11.165Z,3.80
2023-02-11T23:18:40.222Z,4.63
2023-02-11T23:21:13.683Z,5.25
2023-02-11T23:23:40.617Z,5.20
2023-02-11T23:26:13.820Z,6.18
2023-02-11T23:28:41.460Z,2.53
2023-02-11T23:31:26.594Z,2.85
2023-02-11T23:33:54.032Z,4.35
2023-02-11T23:36:21.848Z,4.22
2023-02-11T23:38:49.022Z,3.28
2023-02-11T23:41:16.596Z,2.70
2023-02-11T23:43:43.886Z,3.22
2023-02-11T23:46:11.293Z,4.35
2023-02-11T23:48:40.458Z,3.00
2023-02-11T23:51:09.785Z,2.47
2023-02-11T23:53:38.317Z,4.97
2023-02-11T23:56:15.961Z,2.92
2023-02-11T23:58:44.870Z,3.72
